Time;durP1;ratioP1;P1;durP2;ratioP2;P2;SDS_P1;SDS_P2;PMS_P1;PMS_P2;Temp;Humidity;BMP_temperature;BMP_pressure;BME280_temperature;BME280_humidity;BME280_pressure;Samples;Min_cycle;Max_cycle;Signal;HPM_P1;HPM_P2
2024/01/29 00:01:33;;;;;;;39.20;21.52;;;1.50;74.90;;;;;;4978468;28;20066;-69
2024/01/29 00:03:59;;;;;;;39.20;20.08;;;1.50;74.70;;;;;;4978510;28;20103;-65
2024/01/29 00:06:24;;;;;;;44.88;22.83;;;1.40;75.00;;;;;;4978635;28;20031;-68
2024/01/29 00:08:52;;;;;;;37.80;22.00;;;1.50;75.30;;;;;;4978896;28;20015;-70
2024/01/29 00:11:19;;;;;;;49.58;24.77;;;1.40;75.30;;;;;;4978301;28;20078;-67
2024/01/29 00:13:46;;;;;;;46.40;23.92;;;1.50;75.30;;;;;;4977233;28;20030;-67
2024/01/29 00:16:13;;;;;;;47.78;22.00;;;1.50;75.30;;;;;;4978793;28;20034;-69
2024/01/29 00:18:38;;;;;;;44.45;23.23;;;1.50;75.40;;;;;;4978162;28;20023;-66
2024/01/29 00:21:04;;;;;;;42.65;22.92;;;1.40;74.80;;;;;;4978101;28;20031;-66
2024/01/29 00:23:31;;;;;;;42.80;22.98;;;1.40;75.00;;;;;;4978670;28;20433;-68
2024/01/29 00:25:56;;;;;;;38.00;20.90;;;1.40;75.00;;;;;;4978277;28;20042;-66
2024/01/29 00:28:22;;;;;;;40.00;21.63;;;1.40;75.30;;;;;;4978041;28;20019;-67
2024/01/29 00:30:48;;;;;;;38.17;19.55;;;1.50;75.20;;;;;;4977970;28;20031;-68
2024/01/29 00:33:14;;;;;;;37.40;20.95;;;1.50;74.70;;;;;;4978207;28;20349;-67
2024/01/29 00:35:40;;;;;;;35.60;20.50;;;1.50;74.80;;;;;;4978153;28;20058;-67
2024/01/29 00:38:06;;;;;;;40.08;22.25;;;1.50;74.60;;;;;;4977925;28;20030;-68
2024/01/29 00:40:33;;;;;;;35.78;20.13;;;1.50;74.60;;;;;;4978018;28;20023;-65
2024/01/29 00:43:00;;;;;;;42.60;22.10;;;1.50;74.00;;;;;;4977696;28;20460;-69
2024/01/29 00:45:26;;;;;;;37.10;19.98;;;1.40;74.00;;;;;;4977916;28;20026;-66
2024/01/29 00:47:52;;;;;;;43.63;22.95;;;1.40;74.20;;;;;;4977830;28;20125;-66
2024/01/29 00:50:19;;;;;;;42.88;22.88;;;1.40;74.10;;;;;;4977623;28;20436;-68
2024/01/29 00:52:45;;;;;;;33.83;19.17;;;1.40;74.60;;;;;;4977814;28;20041;-66
2024/01/29 00:55:12;;;;;;;40.10;23.65;;;1.40;74.60;;;;;;4977543;28;20030;-66
2024/01/29 00:57:38;;;;;;;41.65;23.00;;;1.40;74.10;;;;;;4977476;28;20050;-67
2024/01/29 01:00:06;;;;;;;41.75;21.25;;;1.30;74.20;;;;;;4977727;28;20042;-67
2024/01/29 01:02:33;;;;;;;40.05;22.27;;;1.30;74.00;;;;;;4977578;28;20034;-67
2024/01/29 01:04:58;;;;;;;41.60;23.35;;;1.30;74.40;;;;;;4977630;28;20031;-67
2024/01/29 01:07:25;;;;;;;43.60;23.58;;;1.30;74.30;;;;;;4977230;28;20066;-65
2024/01/29 01:09:51;;;;;;;42.45;23.73;;;1.30;74.30;;;;;;4977241;28;20026;-69
2024/01/29 01:12:16;;;;;;;39.60;22.58;;;1.30;74.20;;;;;;4977498;28;20322;-69
2024/01/29 01:14:42;;;;;;;41.60;23.77;;;1.30;74.20;;;;;;4977432;28;20022;-65
2024/01/29 01:17:08;;;;;;;35.47;20.38;;;1.30;74.20;;;;;;4976044;28;20460;-68
2024/01/29 01:19:34;;;;;;;40.53;23.13;;;1.30;74.30;;;;;;4977075;28;20046;-66
2024/01/29 01:22:00;;;;;;;40.65;21.67;;;1.30;74.40;;;;;;4977241;28;20070;-65
2024/01/29 01:24:26;;;;;;;41.90;21.17;;;1.30;74.40;;;;;;4976952;28;20026;-67
2024/01/29 01:26:52;;;;;;;40.30;21.42;;;1.30;74.30;;;;;;4976932;28;20090;-67
2024/01/29 01:29:18;;;;;;;37.38;22.95;;;1.30;74.00;;;;;;4977488;28;20074;-69
2024/01/29 01:31:44;;;;;;;37.28;21.25;;;1.40;73.90;;;;;;4977176;28;20109;-66
2024/01/29 01:34:10;;;;;;;37.08;20.85;;;1.40;74.00;;;;;;4977104;28;20114;-66
2024/01/29 01:36:36;;;;;;;37.90;20.55;;;1.40;73.80;;;;;;4977003;28;20039;-70
2024/01/29 01:39:02;;;;;;;37.60;19.92;;;1.30;73.70;;;;;;4977343;28;20086;-64
2024/01/29 01:41:28;;;;;;;33.80;19.52;;;1.40;73.90;;;;;;4976662;28;20030;-70
2024/01/29 01:43:54;;;;;;;40.78;22.42;;;1.30;74.00;;;;;;4976985;28;20081;-66
2024/01/29 01:46:22;;;;;;;35.47;19.65;;;1.30;73.80;;;;;;4976949;28;20077;-66
2024/01/29 01:48:51;;;;;;;35.95;19.85;;;1.30;73.90;;;;;;4976603;28;20033;-67
2024/01/29 01:51:19;;;;;;;32.08;18.25;;;1.30;74.00;;;;;;4976893;28;20022;-70
2024/01/29 01:53:45;;;;;;;35.80;20.30;;;1.30;73.90;;;;;;4976620;28;20042;-69
2024/01/29 01:56:13;;;;;;;35.63;19.73;;;1.40;73.90;;;;;;4976571;28;20055;-66
2024/01/29 01:58:42;;;;;;;34.55;20.13;;;1.40;73.90;;;;;;4976360;28;20062;-70
2024/01/29 02:01:08;;;;;;;37.95;20.90;;;1.40;73.90;;;;;;4976399;28;20053;-67
2024/01/29 02:03:34;;;;;;;39.22;21.15;;;1.40;74.00;;;;;;4976781;28;20042;-69
2024/01/29 02:06:01;;;;;;;40.10;21.20;;;1.30;74.00;;;;;;4976422;28;20449;-69
2024/01/29 02:08:27;;;;;;;36.40;20.50;;;1.40;73.80;;;;;;4976384;28;20034;-68
2024/01/29 02:10:54;;;;;;;36.15;20.40;;;1.30;73.80;;;;;;4976661;28;20022;-69
2024/01/29 02:13:20;;;;;;;41.60;21.70;;;1.40;73.80;;;;;;4976653;28;20156;-69
2024/01/29 02:15:46;;;;;;;35.35;20.50;;;1.40;73.90;;;;;;4976642;28;20103;-70
2024/01/29 02:18:12;;;;;;;39.97;20.77;;;1.40;73.90;;;;;;4976265;28;20041;-66
2024/01/29 02:20:38;;;;;;;38.55;20.95;;;1.40;73.60;;;;;;4976790;28;20078;-69
2024/01/29 02:23:04;;;;;;;40.50;21.05;;;1.30;73.60;;;;;;4976305;28;20437;-68
2024/01/29 02:25:30;;;;;;;37.50;21.27;;;1.30;73.80;;;;;;4976561;28;20463;-68
2024/01/29 02:27:56;;;;;;;38.70;21.63;;;1.40;73.70;;;;;;4976547;28;20027;-68
2024/01/29 02:30:22;;;;;;;42.28;23.08;;;1.40;73.50;;;;;;4976504;28;20031;-65
2024/01/29 02:32:48;;;;;;;40.95;21.65;;;1.30;73.60;;;;;;4976771;28;20465;-66
2024/01/29 02:35:14;;;;;;;38.75;21.88;;;1.40;73.90;;;;;;4975280;28;20033;-68
2024/01/29 02:37:40;;;;;;;38.60;20.58;;;1.30;74.10;;;;;;4979749;28;20038;-66
2024/01/29 02:40:07;;;;;;;38.30;21.42;;;1.40;74.10;;;;;;4980041;28;20031;-68
2024/01/29 02:42:33;;;;;;;35.40;20.77;;;1.40;73.90;;;;;;4979847;28;20030;-66
2024/01/29 02:44:59;;;;;;;38.33;21.58;;;1.40;73.90;;;;;;4979330;28;20018;-66
2024/01/29 02:47:25;;;;;;;40.08;20.08;;;1.40;74.10;;;;;;4979857;28;20022;-66
2024/01/29 02:49:51;;;;;;;39.83;20.52;;;1.40;74.00;;;;;;4979831;28;20031;-65
2024/01/29 02:52:19;;;;;;;39.30;20.92;;;1.40;73.90;;;;;;4980040;28;20027;-68
2024/01/29 02:54:45;;;;;;;37.85;20.70;;;1.40;74.10;;;;;;4980009;28;20035;-67
2024/01/29 02:57:11;;;;;;;38.72;20.33;;;1.40;74.20;;;;;;4979409;28;20380;-68
2024/01/29 02:59:36;;;;;;;38.22;20.48;;;1.40;73.90;;;;;;4979978;28;20054;-70
2024/01/29 03:02:03;;;;;;;35.85;19.88;;;1.40;73.90;;;;;;4979579;28;20026;-70
2024/01/29 03:04:29;;;;;;;34.38;20.10;;;1.40;73.80;;;;;;4979523;28;20136;-68
2024/01/29 03:06:55;;;;;;;35.42;19.77;;;1.40;73.80;;;;;;4979517;28;20039;-70
2024/01/29 03:09:21;;;;;;;35.47;19.63;;;1.40;73.60;;;;;;4980020;28;20144;-69
2024/01/29 03:11:47;;;;;;;35.83;20.13;;;1.40;73.70;;;;;;4979973;28;20135;-66
2024/01/29 03:14:13;;;;;;;33.92;19.00;;;1.40;73.60;;;;;;4979969;28;20055;-68
2024/01/29 03:16:39;;;;;;;33.22;18.67;;;1.30;73.50;;;;;;4979510;28;20027;-70
2024/01/29 03:19:05;;;;;;;37.75;20.25;;;1.30;73.50;;;;;;4979338;28;20031;-66
2024/01/29 03:21:31;;;;;;;43.17;21.15;;;1.30;73.80;;;;;;4979695;28;20049;-67
2024/01/29 03:23:57;;;;;;;36.85;20.08;;;1.30;73.40;;;;;;4979178;28;20023;-67
2024/01/29 03:26:23;;;;;;;36.13;20.27;;;1.30;73.30;;;;;;4980196;28;20023;-70
2024/01/29 03:28:49;;;;;;;35.00;19.13;;;1.30;73.40;;;;;;4979069;28;20027;-66
2024/01/29 03:31:15;;;;;;;39.72;20.38;;;1.30;73.50;;;;;;4979149;28;20034;-70
2024/01/29 03:33:41;;;;;;;38.63;19.80;;;1.20;73.50;;;;;;4979315;28;20349;-66
2024/01/29 03:36:07;;;;;;;36.85;19.63;;;1.20;73.50;;;;;;4979260;28;20038;-67
2024/01/29 03:38:34;;;;;;;37.40;20.25;;;1.20;73.40;;;;;;4978947;28;20124;-70
2024/01/29 03:41:00;;;;;;;38.67;20.77;;;1.20;73.50;;;;;;4979378;28;20433;-70
2024/01/29 03:43:26;;;;;;;36.30;19.55;;;1.20;73.50;;;;;;4978896;28;20464;-66
2024/01/29 03:45:55;;;;;;;37.20;20.48;;;1.20;73.30;;;;;;4978898;28;20046;-68
2024/01/29 03:48:21;;;;;;;38.13;19.75;;;1.10;73.40;;;;;;4978563;28;20030;-70
2024/01/29 03:50:47;;;;;;;38.05;20.52;;;1.10;73.50;;;;;;4978952;28;20026;-67
2024/01/29 03:53:13;;;;;;;44.60;23.25;;;1.10;73.50;;;;;;4979015;28;20109;-67
2024/01/29 03:55:39;;;;;;;37.80;22.42;;;1.10;73.40;;;;;;4978687;28;20462;-65
2024/01/29 03:58:06;;;;;;;38.83;21.50;;;1.10;73.30;;;;;;4978346;28;20060;-65
2024/01/29 04:00:32;;;;;;;44.97;21.92;;;1.10;73.60;;;;;;4978801;28;20077;-68
2024/01/29 04:02:59;;;;;;;44.03;22.88;;;1.10;73.50;;;;;;4978508;28;20027;-68
2024/01/29 04:05:25;;;;;;;36.75;20.92;;;1.10;73.50;;;;;;4978798;28;20023;-67
2024/01/29 04:07:51;;;;;;;38.80;20.67;;;1.10;73.50;;;;;;4978611;28;20034;-67
2024/01/29 04:10:17;;;;;;;38.83;20.92;;;1.10;73.50;;;;;;4978403;28;20019;-69
2024/01/29 04:12:43;;;;;;;35.80;20.15;;;1.10;73.50;;;;;;4978640;28;20026;-69
2024/01/29 04:15:10;;;;;;;38.88;20.30;;;1.10;73.40;;;;;;4977728;28;20022;-66
2024/01/29 04:17:36;;;;;;;35.67;18.45;;;1.10;73.50;;;;;;4978715;28;20035;-68
2024/01/29 04:20:05;;;;;;;42.55;21.80;;;1.10;73.50;;;;;;4978459;28;20073;-69
2024/01/29 04:22:35;;;;;;;45.28;22.02;;;1.00;73.30;;;;;;4978598;28;20041;-65
2024/01/29 04:25:06;;;;;;;38.67;19.65;;;1.10;73.20;;;;;;4978136;28;20023;-68
2024/01/29 04:27:33;;;;;;;37.42;19.30;;;1.00;73.30;;;;;;4977760;28;20026;-67
2024/01/29 04:30:01;;;;;;;34.53;19.77;;;1.00;73.30;;;;;;4978325;28;20018;-65
2024/01/29 04:32:27;;;;;;;35.20;18.77;;;1.00;73.40;;;;;;4978221;28;20109;-69
2024/01/29 04:34:53;;;;;;;34.50;18.67;;;1.00;73.50;;;;;;4977963;28;20487;-68
2024/01/29 04:37:19;;;;;;;37.33;19.30;;;1.00;73.60;;;;;;4978100;28;20058;-66
2024/01/29 04:39:45;;;;;;;34.05;18.42;;;1.00;73.70;;;;;;4977833;28;20062;-71
2024/01/29 04:42:11;;;;;;;32.72;18.65;;;1.00;73.60;;;;;;4978275;28;20031;-69
2024/01/29 04:44:37;;;;;;;35.15;18.70;;;1.00;73.70;;;;;;4977708;28;20015;-66
2024/01/29 04:47:03;;;;;;;32.75;18.25;;;1.00;73.80;;;;;;4977678;28;20037;-65
2024/01/29 04:49:29;;;;;;;32.70;17.98;;;1.00;73.50;;;;;;4977922;28;20023;-68
2024/01/29 04:51:55;;;;;;;34.55;18.88;;;1.00;73.50;;;;;;4977624;28;20106;-65
2024/01/29 04:54:21;;;;;;;32.45;18.00;;;1.00;73.60;;;;;;4977623;28;20027;-67
2024/01/29 04:56:47;;;;;;;31.35;17.30;;;1.00;73.50;;;;;;4977497;28;20455;-69
2024/01/29 04:59:14;;;;;;;30.30;17.75;;;1.00;73.40;;;;;;4977145;28;20026;-68
2024/01/29 05:01:39;;;;;;;35.42;19.20;;;0.90;73.40;;;;;;4977914;28;20034;-68
2024/01/29 05:04:05;;;;;;;33.25;17.75;;;1.00;73.60;;;;;;4977379;28;20086;-68
2024/01/29 05:06:31;;;;;;;37.38;17.98;;;0.90;73.90;;;;;;4977549;28;20183;-68
2024/01/29 05:08:57;;;;;;;33.55;18.58;;;1.00;73.90;;;;;;4977348;28;20023;-68
2024/01/29 05:11:23;;;;;;;31.25;17.27;;;1.00;74.00;;;;;;4977559;28;20026;-66
2024/01/29 05:13:49;;;;;;;35.22;19.35;;;1.00;74.00;;;;;;4977753;28;20050;-67
2024/01/29 05:16:15;;;;;;;32.55;18.00;;;1.10;74.10;;;;;;4977216;28;20460;-69
2024/01/29 05:18:42;;;;;;;36.35;20.35;;;1.10;73.80;;;;;;4976098;28;20026;-67
2024/01/29 05:21:08;;;;;;;34.05;19.02;;;1.10;73.80;;;;;;4977258;28;20034;-68
2024/01/29 05:23:34;;;;;;;31.27;18.20;;;1.00;73.60;;;;;;4977334;28;20042;-69
2024/01/29 05:26:00;;;;;;;34.72;17.80;;;1.00;73.80;;;;;;4977239;28;20113;-66
2024/01/29 05:28:26;;;;;;;33.28;17.65;;;1.00;73.80;;;;;;4976937;28;20045;-68
2024/01/29 05:30:52;;;;;;;35.08;17.80;;;1.00;73.80;;;;;;4977194;28;20432;-65
2024/01/29 05:33:18;;;;;;;31.70;16.90;;;1.00;73.70;;;;;;4975932;28;20023;-65
2024/01/29 05:35:44;;;;;;;31.90;17.15;;;1.00;73.40;;;;;;4977135;28;20118;-71
2024/01/29 05:38:10;;;;;;;32.08;18.77;;;0.90;73.40;;;;;;4976752;28;20026;-65
2024/01/29 05:40:36;;;;;;;35.10;18.80;;;1.00;73.50;;;;;;4976681;28;20224;-67
2024/01/29 05:43:02;;;;;;;27.70;14.90;;;0.90;73.70;;;;;;4976739;28;20065;-66
2024/01/29 05:45:28;;;;;;;29.65;16.25;;;0.90;73.60;;;;;;4977224;28;20073;-68
2024/01/29 05:47:54;;;;;;;28.02;16.90;;;0.90;73.60;;;;;;4976618;28;20030;-66
2024/01/29 05:50:20;;;;;;;31.58;16.20;;;0.90;73.80;;;;;;4977167;28;20077;-68
2024/01/29 05:52:46;;;;;;;30.65;16.40;;;0.90;73.70;;;;;;4976651;28;20039;-65
2024/01/29 05:55:12;;;;;;;37.45;18.48;;;0.90;73.80;;;;;;4976630;28;20101;-68
2024/01/29 05:57:38;;;;;;;34.60;18.13;;;0.90;73.70;;;;;;4976659;28;20085;-66
2024/01/29 06:00:09;;;;;;;39.25;20.08;;;0.90;73.70;;;;;;4976525;28;20035;-65
2024/01/29 06:02:39;;;;;;;38.83;18.67;;;0.90;73.80;;;;;;4976412;28;20031;-64
2024/01/29 06:05:05;;;;;;;35.97;18.75;;;0.90;73.60;;;;;;4976478;28;20030;-66
2024/01/29 06:07:31;;;;;;;35.42;20.13;;;0.90;73.70;;;;;;4976390;28;20466;-67
2024/01/29 06:09:57;;;;;;;36.38;21.38;;;0.80;73.70;;;;;;4975961;28;20031;-67
2024/01/29 06:12:23;;;;;;;34.58;19.75;;;0.80;73.70;;;;;;4976041;28;20023;-65
2024/01/29 06:14:49;;;;;;;37.13;20.13;;;0.80;73.70;;;;;;4976891;28;20046;-69
2024/01/29 06:17:15;;;;;;;37.38;20.08;;;0.80;73.80;;;;;;4976821;28;20037;-67
2024/01/29 06:19:41;;;;;;;35.67;20.42;;;0.80;74.00;;;;;;4976671;28;20026;-68
2024/01/29 06:22:07;;;;;;;37.45;19.92;;;0.90;73.90;;;;;;4976557;28;20037;-68
2024/01/29 06:24:33;;;;;;;32.80;19.02;;;0.80;73.80;;;;;;4976831;28;20048;-68
2024/01/29 06:26:59;;;;;;;37.13;19.23;;;0.80;74.00;;;;;;4976452;28;20313;-68
2024/01/29 06:29:25;;;;;;;41.28;21.38;;;0.90;74.00;;;;;;4976776;28;20023;-67
2024/01/29 06:31:52;;;;;;;37.40;19.95;;;0.90;73.90;;;;;;4976181;28;20027;-67
2024/01/29 06:34:18;;;;;;;33.83;19.40;;;0.80;73.70;;;;;;4975252;28;20034;-68
2024/01/29 06:36:44;;;;;;;35.55;19.75;;;0.90;73.70;;;;;;4976298;28;20023;-65
2024/01/29 06:39:11;;;;;;;37.72;20.30;;;0.90;73.90;;;;;;4976119;28;20031;-67
2024/01/29 06:41:37;;;;;;;34.85;19.88;;;0.90;73.70;;;;;;4976023;28;20043;-67
2024/01/29 06:44:03;;;;;;;34.67;18.33;;;0.80;73.90;;;;;;4976644;28;20023;-66
2024/01/29 06:46:29;;;;;;;31.92;17.73;;;0.90;73.80;;;;;;4976457;28;20353;-67
2024/01/29 06:48:55;;;;;;;34.03;19.00;;;0.80;73.60;;;;;;4976293;28;20023;-66
2024/01/29 06:51:21;;;;;;;35.55;18.85;;;0.80;73.70;;;;;;4976222;28;20385;-70
2024/01/29 06:53:47;;;;;;;37.70;20.02;;;0.80;73.80;;;;;;4976190;28;20039;-66
2024/01/29 06:56:13;;;;;;;43.33;20.42;;;0.90;73.90;;;;;;4974971;28;20037;-70
2024/01/29 06:58:39;;;;;;;36.88;18.85;;;0.90;73.80;;;;;;4974600;28;20529;-68
2024/01/29 07:01:05;;;;;;;41.50;22.30;;;0.90;73.90;;;;;;4975787;28;20030;-66
2024/01/29 07:03:32;;;;;;;37.08;19.60;;;0.90;73.80;;;;;;4975886;28;20058;-65
2024/01/29 07:05:58;;;;;;;31.73;19.00;;;0.90;73.90;;;;;;4974815;28;20027;-65
2024/01/29 07:08:26;;;;;;;35.05;21.20;;;0.90;73.80;;;;;;4975995;28;20346;-64
2024/01/29 07:10:52;;;;;;;39.30;21.48;;;1.00;73.90;;;;;;4976058;28;20026;-65
2024/01/29 07:13:18;;;;;;;39.30;22.45;;;1.00;74.00;;;;;;4976089;28;20027;-67
2024/01/29 07:15:45;;;;;;;39.13;20.80;;;1.00;74.00;;;;;;4976029;28;20326;-70
2024/01/29 07:18:11;;;;;;;40.42;22.63;;;1.00;73.90;;;;;;4975711;28;20035;-64
2024/01/29 07:20:42;;;;;;;34.65;19.92;;;1.10;73.70;;;;;;4976272;28;20429;-68
2024/01/29 07:25:47;;;;;;;36.55;19.77;;;1.10;74.10;;;;;;5216617;23;20535;-68
2024/01/29 07:28:13;;;;;;;33.78;19.08;;;1.10;74.30;;;;;;5259306;23;20070;-67
2024/01/29 07:30:39;;;;;;;37.50;20.55;;;1.20;74.40;;;;;;4974112;28;20019;-67
2024/01/29 07:33:32;;;;;;;40.33;20.65;;;1.30;74.40;;;;;;4960096;28;20035;-67
2024/01/29 07:35:59;;;;;;;41.42;21.48;;;1.40;74.40;;;;;;4960251;28;20068;-69
2024/01/29 07:38:25;;;;;;;33.50;18.75;;;1.50;74.50;;;;;;4959549;28;20027;-68
2024/01/29 07:40:50;;;;;;;34.92;18.88;;;1.70;74.70;;;;;;4959811;28;20034;-68
2024/01/29 07:43:16;;;;;;;33.30;19.85;;;1.90;74.80;;;;;;4959829;28;20078;-67
2024/01/29 07:45:43;;;;;;;34.30;18.90;;;2.10;74.40;;;;;;4959796;28;20081;-64
2024/01/29 07:48:09;;;;;;;31.77;17.67;;;2.20;74.20;;;;;;4959387;28;20027;-68
2024/01/29 07:50:35;;;;;;;32.47;18.58;;;2.30;74.20;;;;;;4959386;28;20043;-67
2024/01/29 07:53:01;;;;;;;34.08;19.95;;;2.40;73.90;;;;;;4959591;28;20078;-65
2024/01/29 07:55:27;;;;;;;33.40;18.67;;;2.50;73.70;;;;;;4958291;29;20463;-69
2024/01/29 07:57:53;;;;;;;34.28;20.00;;;2.60;73.60;;;;;;4959252;28;20121;-64
2024/01/29 08:00:20;;;;;;;37.75;20.17;;;2.70;73.70;;;;;;4958222;29;20046;-66
2024/01/29 08:02:46;;;;;;;35.08;20.95;;;2.80;74.20;;;;;;4959046;28;20359;-67
2024/01/29 08:05:12;;;;;;;36.90;20.05;;;3.00;74.20;;;;;;4959375;28;20045;-70
2024/01/29 08:07:38;;;;;;;37.33;20.65;;;3.10;74.10;;;;;;4959121;28;20031;-68
2024/01/29 08:10:04;;;;;;;37.08;19.70;;;3.20;74.20;;;;;;4958968;28;20023;-66
2024/01/29 08:12:30;;;;;;;38.17;21.55;;;3.40;74.20;;;;;;4942191;29;20341;-69
2024/01/29 08:14:56;;;;;;;38.70;20.55;;;3.50;74.00;;;;;;4959223;28;20031;-66
2024/01/29 08:17:22;;;;;;;35.65;19.40;;;3.60;73.70;;;;;;4959486;28;20457;-68
2024/01/29 08:19:48;;;;;;;34.92;19.40;;;3.70;73.80;;;;;;4958740;28;20030;-68
2024/01/29 08:22:14;;;;;;;34.05;19.60;;;3.90;73.50;;;;;;4958847;28;20031;-67
2024/01/29 08:24:40;;;;;;;36.33;20.23;;;4.00;73.50;;;;;;4958826;28;20023;-65
2024/01/29 08:27:06;;;;;;;37.58;20.00;;;4.10;73.20;;;;;;5221009;23;20038;-64
2024/01/29 08:29:32;;;;;;;33.72;18.92;;;4.20;73.00;;;;;;4978017;28;20027;-67
2024/01/29 08:31:58;;;;;;;35.25;19.98;;;4.30;72.90;;;;;;4977946;28;20030;-69
2024/01/29 08:34:25;;;;;;;37.58;20.70;;;4.40;72.60;;;;;;4976819;28;20413;-68
2024/01/29 08:36:51;;;;;;;34.58;19.30;;;4.50;72.10;;;;;;4978102;28;20038;-69
2024/01/29 08:39:17;;;;;;;30.77;18.33;;;4.60;72.40;;;;;;4977882;28;20025;-68
2024/01/29 08:41:43;;;;;;;29.75;17.33;;;4.70;72.30;;;;;;4978246;28;20027;-72
2024/01/29 08:44:10;;;;;;;28.73;17.63;;;4.80;72.20;;;;;;4977578;28;20035;-68
2024/01/29 08:46:36;;;;;;;34.42;19.38;;;4.90;71.80;;;;;;4977847;28;20368;-65
2024/01/29 08:49:02;;;;;;;29.90;17.80;;;5.00;71.70;;;;;;4977826;28;20019;-69
2024/01/29 08:51:28;;;;;;;33.35;19.38;;;5.20;71.60;;;;;;4976747;28;20035;-72
2024/01/29 08:53:54;;;;;;;29.80;17.42;;;5.30;71.40;;;;;;4977590;28;20049;-66
2024/01/29 08:56:20;;;;;;;32.47;17.17;;;5.30;71.20;;;;;;4976622;28;20031;-69
2024/01/29 08:58:46;;;;;;;35.17;18.58;;;5.40;71.10;;;;;;4977683;28;20333;-68
2024/01/29 09:01:11;;;;;;;34.45;20.08;;;5.50;71.00;;;;;;4977939;28;20043;-66
2024/01/29 09:03:37;;;;;;;39.05;22.40;;;5.60;70.70;;;;;;4977403;28;20110;-70
2024/01/29 09:06:03;;;;;;;35.97;20.67;;;5.60;70.70;;;;;;4977326;28;20094;-66
2024/01/29 09:08:31;;;;;;;36.78;20.70;;;5.70;69.70;;;;;;4977210;28;20106;-65
2024/01/29 09:10:57;;;;;;;33.58;19.65;;;5.70;70.20;;;;;;4977206;28;20059;-68
2024/01/29 09:13:23;;;;;;;34.47;20.60;;;5.70;70.60;;;;;;4977694;28;20061;-64
2024/01/29 09:15:48;;;;;;;34.25;19.80;;;5.70;70.20;;;;;;4977157;28;20023;-64
2024/01/29 09:18:14;;;;;;;29.83;18.05;;;5.80;70.20;;;;;;4977262;28;20055;-65
2024/01/29 09:20:40;;;;;;;32.47;18.48;;;5.80;70.20;;;;;;4977094;28;20019;-65
2024/01/29 09:23:07;;;;;;;32.13;18.33;;;5.90;70.80;;;;;;4977230;28;20034;-64
2024/01/29 09:25:33;;;;;;;32.08;18.15;;;5.90;70.90;;;;;;4976912;28;20052;-64
2024/01/29 09:27:58;;;;;;;32.00;20.08;;;6.00;70.70;;;;;;4976999;28;20059;-67
2024/01/29 09:30:24;;;;;;;40.40;20.45;;;6.10;70.70;;;;;;4977201;28;20058;-64
2024/01/29 09:32:50;;;;;;;31.95;17.73;;;6.20;70.60;;;;;;4976652;28;20085;-65
2024/01/29 09:35:16;;;;;;;34.00;20.10;;;6.30;70.40;;;;;;4976905;28;20054;-65
2024/01/29 09:37:42;;;;;;;31.50;18.33;;;6.40;70.60;;;;;;4977009;28;20084;-67
2024/01/29 09:40:15;;;;;;;31.48;18.55;;;6.40;70.10;;;;;;4976046;28;20157;-65
2024/01/29 09:42:41;;;;;;;32.75;18.00;;;6.50;69.30;;;;;;4974691;28;20038;-68
2024/01/29 09:45:11;;;;;;;29.25;18.10;;;6.50;69.40;;;;;;4974730;28;20058;-64
2024/01/29 09:47:38;;;;;;;32.40;18.50;;;6.50;70.10;;;;;;4974626;28;20026;-66
2024/01/29 09:50:09;;;;;;;34.03;18.35;;;6.50;70.20;;;;;;4974549;28;20019;-67
2024/01/29 09:52:38;;;;;;;33.22;18.98;;;6.60;70.20;;;;;;4974854;28;20166;-65
2024/01/29 09:55:05;;;;;;;28.77;17.63;;;6.70;70.30;;;;;;4976191;28;20027;-65
2024/01/29 09:57:32;;;;;;;30.67;18.48;;;6.70;70.10;;;;;;4976969;28;20302;-67
2024/01/29 09:59:58;;;;;;;31.50;20.23;;;6.80;70.20;;;;;;4976552;28;20027;-64
2024/01/29 10:02:26;;;;;;;31.17;18.70;;;6.90;70.30;;;;;;4975500;28;20072;-67
2024/01/29 10:04:52;;;;;;;29.30;17.73;;;6.90;70.00;;;;;;4976740;28;20030;-65
2024/01/29 10:07:18;;;;;;;30.95;18.90;;;6.90;69.90;;;;;;4976663;28;20031;-67
2024/01/29 10:09:44;;;;;;;31.17;19.30;;;7.00;69.60;;;;;;4976269;28;20066;-64
2024/01/29 10:12:23;;;;;;;29.60;17.13;;;7.00;69.40;;;;;;4976148;28;20086;-64
2024/01/29 10:14:49;;;;;;;28.65;17.63;;;7.10;69.60;;;;;;4975019;28;20027;-63
2024/01/29 10:17:15;;;;;;;33.08;18.40;;;7.20;69.70;;;;;;4975775;28;20085;-68
2024/01/29 10:19:43;;;;;;;28.90;16.33;;;7.30;69.60;;;;;;4976613;28;20019;-68
2024/01/29 10:22:13;;;;;;;29.48;16.35;;;7.40;69.60;;;;;;4976288;28;20042;-64
2024/01/29 10:24:39;;;;;;;28.30;17.13;;;7.50;69.40;;;;;;4975339;28;20026;-65
2024/01/29 10:27:08;;;;;;;28.98;17.17;;;7.50;69.20;;;;;;4976040;28;20486;-65
2024/01/29 10:29:48;;;;;;;28.40;15.60;;;7.60;68.20;;;;;;4976275;28;20081;-67
2024/01/29 10:32:14;;;;;;;28.73;17.33;;;7.70;68.50;;;;;;4976250;28;20047;-63
2024/01/29 10:34:40;;;;;;;27.38;15.77;;;7.80;68.40;;;;;;4976498;28;20058;-66
2024/01/29 10:37:07;;;;;;;25.08;15.52;;;7.90;68.20;;;;;;4976067;28;20466;-65
2024/01/29 10:39:36;;;;;;;28.52;16.02;;;7.90;68.60;;;;;;4976402;28;20019;-68
2024/01/29 10:42:03;;;;;;;29.23;17.05;;;8.00;68.50;;;;;;4975993;28;20134;-67
2024/01/29 10:44:33;;;;;;;26.40;15.75;;;8.10;68.10;;;;;;4976456;28;20038;-67
2024/01/29 10:47:17;;;;;;;32.30;17.02;;;8.20;68.30;;;;;;4975973;28;20510;-68
2024/01/29 10:49:44;;;;;;;28.23;16.33;;;8.20;68.10;;;;;;4976638;28;20019;-67
2024/01/29 10:52:12;;;;;;;30.27;17.67;;;8.40;67.70;;;;;;4975202;28;20500;-68
2024/01/29 10:54:39;;;;;;;31.88;17.83;;;8.40;67.50;;;;;;4976317;28;20035;-68
2024/01/29 10:57:09;;;;;;;29.60;16.70;;;8.40;67.10;;;;;;4976975;28;20026;-69
2024/01/29 10:59:38;;;;;;;29.33;16.52;;;8.50;67.50;;;;;;4980038;28;20037;-68
2024/01/29 11:02:05;;;;;;;31.77;19.15;;;8.60;67.30;;;;;;4978591;28;20023;-68
2024/01/29 11:04:31;;;;;;;32.55;19.13;;;8.70;66.90;;;;;;4979602;28;20026;-66
2024/01/29 11:07:05;;;;;;;31.52;17.90;;;8.80;66.70;;;;;;4979752;28;20026;-66
2024/01/29 11:09:32;;;;;;;32.58;18.58;;;8.80;66.90;;;;;;4980072;28;20050;-68
2024/01/29 11:11:59;;;;;;;35.85;19.35;;;8.90;66.40;;;;;;4979440;28;20357;-66
2024/01/29 11:14:25;;;;;;;32.25;17.63;;;8.90;64.70;;;;;;4979935;28;20034;-66
2024/01/29 11:16:52;;;;;;;30.67;16.92;;;8.90;65.80;;;;;;4979322;28;20031;-66
2024/01/29 11:19:22;;;;;;;32.05;17.10;;;9.00;65.60;;;;;;4979330;28;20101;-69
2024/01/29 11:21:49;;;;;;;31.35;17.83;;;9.00;66.50;;;;;;4979518;28;20039;-65
2024/01/29 11:24:16;;;;;;;34.35;18.35;;;9.00;64.70;;;;;;4979468;28;20023;-65
2024/01/29 11:26:42;;;;;;;32.50;17.35;;;9.00;64.70;;;;;;4979737;28;20023;-70
2024/01/29 11:29:10;;;;;;;28.70;17.55;;;9.00;65.20;;;;;;4978971;28;20500;-66
2024/01/29 11:31:41;;;;;;;28.75;16.38;;;9.00;65.20;;;;;;4979078;28;20035;-68
2024/01/29 11:34:08;;;;;;;32.00;16.60;;;9.00;64.10;;;;;;4979105;28;20444;-67
2024/01/29 11:36:38;;;;;;;32.05;17.20;;;9.00;64.40;;;;;;4979497;28;20042;-66
2024/01/29 11:39:14;;;;;;;29.50;15.32;;;9.00;64.50;;;;;;4978041;28;20027;-69
2024/01/29 11:41:48;;;;;;;28.80;16.92;;;9.00;65.40;;;;;;4978024;28;20039;-67
2024/01/29 11:44:18;;;;;;;25.00;15.65;;;9.10;65.70;;;;;;4978879;28;20031;-66
2024/01/29 11:46:45;;;;;;;28.55;16.17;;;9.20;65.60;;;;;;4978855;28;20478;-66
2024/01/29 11:49:11;;;;;;;28.23;16.05;;;9.20;65.90;;;;;;4978671;28;20109;-67
2024/01/29 11:51:38;;;;;;;28.85;16.15;;;9.30;65.10;;;;;;4979288;28;20077;-67
2024/01/29 11:54:04;;;;;;;27.52;15.43;;;9.40;65.20;;;;;;4979009;28;20094;-66
2024/01/29 11:56:30;;;;;;;27.45;16.33;;;9.40;65.30;;;;;;4978672;28;20058;-65
2024/01/29 11:59:01;;;;;;;25.55;15.18;;;9.50;66.00;;;;;;4978609;28;20065;-66
2024/01/29 12:01:28;;;;;;;25.60;15.43;;;9.60;65.70;;;;;;4978727;28;20038;-65
2024/01/29 12:03:54;;;;;;;26.55;15.65;;;9.70;65.30;;;;;;4978776;28;20027;-67
2024/01/29 12:06:20;;;;;;;31.58;16.85;;;9.80;64.60;;;;;;4979250;28;20039;-66
2024/01/29 12:08:47;;;;;;;28.05;16.52;;;9.80;64.90;;;;;;4978508;28;20109;-66
2024/01/29 12:11:15;;;;;;;29.92;18.10;;;9.90;64.90;;;;;;4978393;28;20084;-67
2024/01/29 12:13:41;;;;;;;30.20;16.80;;;10.00;64.30;;;;;;4978334;28;20380;-68
2024/01/29 12:16:09;;;;;;;26.38;15.18;;;10.00;64.20;;;;;;4978838;28;20353;-66
2024/01/29 12:18:38;;;;;;;28.05;16.30;;;10.10;64.20;;;;;;4978488;28;20074;-66
2024/01/29 12:21:05;;;;;;;29.95;17.23;;;10.20;63.60;;;;;;4978094;28;20368;-69
2024/01/29 12:23:32;;;;;;;30.08;14.80;;;10.30;64.10;;;;;;4978145;28;20031;-66
2024/01/29 12:25:58;;;;;;;25.20;14.60;;;10.30;62.40;;;;;;4978136;28;20052;-68
2024/01/29 12:28:27;;;;;;;34.65;18.48;;;10.40;63.00;;;;;;4977805;28;20045;-66
2024/01/29 12:30:57;;;;;;;31.90;17.85;;;10.40;62.60;;;;;;4978312;28;20520;-68
2024/01/29 12:33:29;;;;;;;28.02;15.70;;;10.50;62.80;;;;;;4978272;28;20027;-70
2024/01/29 12:36:19;;;;;;;28.55;16.42;;;10.50;63.10;;;;;;4977967;28;20027;-69